Time;durP1;ratioP1;P1;durP2;ratioP2;P2;SDS_P1;SDS_P2;PMS_P1;PMS_P2;Temp;Humidity;BMP_temperature;BMP_pressure;BME280_temperature;BME280_humidity;BME280_pressure;Samples;Min_cycle;Max_cycle;Signal;HPM_P1;HPM_P2
2022/11/05 15:03:25;;;;;;;4.18;2.65;;;;;;;10.19;83.69;101597.22;5131911;27;20378;-92
2022/11/05 15:05:51;;;;;;;5.07;2.97;;;;;;;10.18;83.08;101601.53;5131935;28;20032;-91
2022/11/05 15:08:28;;;;;;;5.05;2.90;;;;;;;10.19;83.46;101599.81;5131828;28;20110;-90
2022/11/05 15:11:13;;;;;;;5.07;2.80;;;;;;;10.20;84.62;101585.97;5131701;28;20023;-90
2022/11/05 15:13:53;;;;;;;4.50;3.10;;;;;;;10.22;83.56;101585.94;5132171;28;20473;-90
2022/11/05 15:16:42;;;;;;;5.88;2.72;;;;;;;10.23;84.17;101585.97;5131817;28;20538;-90
2022/11/05 15:19:20;;;;;;;4.63;2.72;;;;;;;10.22;83.90;101586.84;5131188;28;20059;-90
2022/11/05 15:21:46;;;;;;;5.75;2.70;;;;;;;10.24;84.44;101585.09;5131669;28;20510;-90
2022/11/05 15:24:14;;;;;;;3.27;2.50;;;;;;;10.24;83.78;101581.63;5132110;28;20023;-90
2022/11/05 15:26:48;;;;;;;3.83;2.70;;;;;;;10.27;83.83;101585.06;5133809;28;20019;-90
2022/11/05 15:29:26;;;;;;;5.07;2.50;;;;;;;10.27;84.06;101582.47;5132558;28;20034;-89
2022/11/05 15:31:51;;;;;;;3.53;2.45;;;;;;;10.30;84.80;101581.63;5131744;28;20023;-90
2022/11/05 15:34:28;;;;;;;3.60;2.53;;;;;;;10.28;82.78;101576.44;5132026;28;20035;-89
2022/11/05 15:37:00;;;;;;;5.30;3.03;;;;;;;10.28;83.83;101576.44;5131517;28;20375;-90
2022/11/05 15:39:38;;;;;;;6.35;3.10;;;;;;;10.27;83.20;101582.47;5131614;28;20183;-89
2022/11/05 15:42:10;;;;;;;6.15;2.70;;;;;;;10.24;83.29;101579.91;5131159;28;20042;-90
2022/11/05 15:44:41;;;;;;;4.68;2.78;;;;;;;10.22;84.28;101578.16;5131770;28;20024;-90
2022/11/05 15:47:27;;;;;;;4.13;2.50;;;;;;;10.19;84.03;101574.72;5130582;28;20500;-90
2022/11/05 15:49:53;;;;;;;4.15;2.70;;;;;;;10.15;83.99;101574.72;5131362;28;20376;-91
2022/11/05 15:52:22;;;;;;;4.68;2.63;;;;;;;10.12;84.21;101570.41;5131349;28;20046;-91
2022/11/05 15:55:18;;;;;;;4.72;2.60;;;;;;;10.10;84.57;101568.69;5130739;28;20027;-88
2022/11/05 15:58:03;;;;;;;3.13;2.30;;;;;;;10.07;84.74;101571.28;5131551;28;20168;-91
2022/11/05 16:00:31;;;;;;;6.55;2.70;;;;;;;10.05;84.46;101576.50;5130911;28;20018;-90
2022/11/05 16:03:22;;;;;;;3.75;2.45;;;;;;;10.03;84.72;101581.66;5130199;28;20024;-91
2022/11/05 16:05:48;;;;;;;4.25;2.60;;;;;;;10.01;85.25;101573.03;5131251;28;20400;-89
2022/11/05 16:08:18;;;;;;;4.15;2.30;;;;;;;10.00;84.45;101575.63;5130397;28;20054;-88
2022/11/05 16:10:50;;;;;;;3.83;2.20;;;;;;;9.99;84.68;101571.28;5129716;28;20031;-87
2022/11/05 16:13:34;;;;;;;4.40;2.42;;;;;;;9.97;84.90;101573.00;5120917;28;20020;-88
2022/11/05 16:16:21;;;;;;;5.25;2.60;;;;;;;9.95;85.73;101570.44;5115714;28;20024;-86
2022/11/05 16:18:47;;;;;;;3.80;2.58;;;;;;;9.94;85.29;101565.25;5116796;28;20094;-85
2022/11/05 16:21:21;;;;;;;3.77;2.53;;;;;;;9.94;85.01;101570.44;5115628;28;20422;-86
2022/11/05 16:23:47;;;;;;;3.78;2.50;;;;;;;9.94;85.50;101566.09;5116117;28;20031;-87
2022/11/05 16:26:32;;;;;;;5.65;2.72;;;;;;;9.95;85.35;101557.47;5115838;28;20020;-86
2022/11/05 16:29:00;;;;;;;2.88;2.25;;;;;;;9.94;84.43;101555.75;5115808;28;20053;-85
2022/11/05 16:31:28;;;;;;;4.93;2.50;;;;;;;9.91;85.04;101557.47;5116626;28;20019;-86
2022/11/05 16:33:54;;;;;;;4.28;2.30;;;;;;;9.92;84.94;101554.88;5116352;28;20111;-85
2022/11/05 16:36:20;;;;;;;3.17;2.22;;;;;;;9.92;85.06;101557.47;5115592;28;20012;-86
2022/11/05 16:38:46;;;;;;;4.43;2.37;;;;;;;9.92;84.64;101554.03;5116226;28;20032;-87
2022/11/05 16:41:13;;;;;;;3.77;2.20;;;;;;;9.92;85.36;101544.50;5115731;28;20028;-87
2022/11/05 16:43:38;;;;;;;2.10;1.90;;;;;;;9.94;85.36;101549.72;5116223;28;20024;-87
2022/11/05 16:46:04;;;;;;;2.10;1.83;;;;;;;9.93;84.95;101558.34;5116367;28;20023;-86
2022/11/05 16:48:29;;;;;;;6.50;2.70;;;;;;;9.93;84.79;101555.75;5116323;28;20025;-87
2022/11/05 16:50:54;;;;;;;4.80;2.40;;;;;;;9.93;84.82;101547.97;5115208;28;20038;-87
2022/11/05 16:53:20;;;;;;;3.13;2.20;;;;;;;9.92;84.90;101554.03;5116243;28;20024;-86
2022/11/05 16:55:45;;;;;;;4.30;2.20;;;;;;;9.89;85.26;101553.16;5115363;28;20559;-86
2022/11/05 16:58:16;;;;;;;2.73;2.10;;;;;;;9.91;85.93;101550.56;5115347;28;20028;-86
2022/11/05 17:00:41;;;;;;;2.38;2.10;;;;;;;9.91;85.10;101557.47;5115414;28;20471;-87
2022/11/05 17:03:06;;;;;;;5.53;2.73;;;;;;;9.88;85.16;101551.44;5115769;28;20024;-87
2022/11/05 17:05:33;;;;;;;4.17;2.50;;;;;;;9.86;85.00;101545.38;5115340;28;20031;-87
2022/11/05 17:08:00;;;;;;;4.57;2.80;;;;;;;9.86;85.69;101552.31;5115742;28;20035;-86
2022/11/05 17:10:27;;;;;;;;;;;;;;;9.85;85.19;101550.56;5115651;28;20028;-87
2022/11/05 17:12:53;;;;;;;4.10;2.70;;;;;;;9.85;86.41;101559.19;5115600;28;20378;-87
2022/11/05 17:15:24;;;;;;;5.80;2.80;;;;;;;9.84;85.70;101562.69;5115637;28;20020;-87
2022/11/05 17:17:51;;;;;;;5.70;3.00;;;;;;;9.84;85.65;101561.81;5115209;28;20027;-86
2022/11/05 17:20:32;;;;;;;7.28;2.88;;;;;;;9.84;86.16;101561.81;5115373;28;20058;-86
2022/11/05 17:22:59;;;;;;;6.93;2.70;;;;;;;9.83;85.87;101560.94;5115031;28;20020;-86
2022/11/05 17:25:24;;;;;;;5.88;2.83;;;;;;;9.81;85.79;101564.38;5113862;28;20089;-87
2022/11/05 17:27:50;;;;;;;6.03;3.00;;;;;;;9.80;85.98;101555.75;5114956;28;20464;-86
2022/11/05 17:30:16;;;;;;;4.10;2.70;;;;;;;9.80;86.19;101557.47;5115329;28;20081;-86
2022/11/05 17:32:42;;;;;;;6.03;3.10;;;;;;;9.77;87.07;101550.56;5115005;28;20476;-87
2022/11/05 17:35:08;;;;;;;5.83;3.20;;;;;;;9.76;86.41;101548.00;5114739;28;20015;-86
2022/11/05 17:37:33;;;;;;;5.73;3.40;;;;;;;9.74;86.04;101548.84;5115215;28;20033;-86
2022/11/05 17:40:00;;;;;;;5.97;3.37;;;;;;;9.72;86.43;101547.97;5114613;28;20539;-86
2022/11/05 17:42:26;;;;;;;5.25;3.28;;;;;;;9.71;87.33;101550.59;5115210;28;20030;-87
2022/11/05 17:44:52;;;;;;;6.35;3.30;;;;;;;9.69;86.66;101555.75;5114999;28;20015;-87
2022/11/05 17:47:17;;;;;;;6.50;3.33;;;;;;;9.67;86.85;101554.91;5114462;28;20027;-86
2022/11/05 17:49:42;;;;;;;6.70;3.30;;;;;;;9.67;86.74;101554.03;5114791;28;20031;-86
2022/11/05 17:52:09;;;;;;;5.80;3.10;;;;;;;9.67;86.74;101557.50;5114761;28;20027;-88
2022/11/05 17:54:34;;;;;;;5.45;2.80;;;;;;;9.67;86.84;101567.88;5114372;28;20106;-88
2022/11/05 17:57:01;;;;;;;4.60;2.70;;;;;;;9.69;87.27;101566.13;5115133;28;20097;-87
2022/11/05 17:59:27;;;;;;;4.15;2.80;;;;;;;9.69;86.83;101576.50;5114979;28;20015;-89
2022/11/05 18:01:52;;;;;;;7.03;3.00;;;;;;;9.69;86.77;101579.09;5114193;28;20089;-85
2022/11/05 18:04:17;;;;;;;5.43;3.33;;;;;;;9.67;86.82;101582.53;5114658;28;20475;-86
2022/11/05 18:06:42;;;;;;;5.53;3.20;;;;;;;9.67;86.71;101585.13;5113543;28;20019;-87
2022/11/05 18:09:09;;;;;;;7.03;3.40;;;;;;;9.65;86.45;101585.16;5114952;28;20020;-87
2022/11/05 18:11:35;;;;;;;4.53;3.00;;;;;;;9.65;86.91;101587.75;5114831;28;20028;-88
2022/11/05 18:14:01;;;;;;;6.47;3.13;;;;;;;9.66;86.88;101592.06;5114153;28;20476;-87
2022/11/05 18:16:26;;;;;;;6.43;3.50;;;;;;;9.64;86.84;101578.22;5114918;28;20024;-88
2022/11/05 18:18:52;;;;;;;4.37;2.93;;;;;;;9.65;86.83;101586.84;5114703;28;20045;-88
2022/11/05 18:21:17;;;;;;;7.73;3.23;;;;;;;9.63;87.41;101584.28;5114179;28;20372;-87
2022/11/05 18:23:43;;;;;;;6.80;3.70;;;;;;;9.60;87.01;101579.09;5114181;28;20031;-88
2022/11/05 18:26:13;;;;;;;6.63;3.50;;;;;;;9.60;86.94;101575.63;5114693;28;20464;-88
2022/11/05 18:28:39;;;;;;;7.18;3.92;;;;;;;9.62;86.97;101579.94;5110482;28;20468;-87
2022/11/05 18:31:14;;;;;;;8.20;4.00;;;;;;;9.58;86.85;101579.09;5114210;28;20111;-88
2022/11/05 18:33:41;;;;;;;5.13;3.67;;;;;;;9.59;87.25;101590.31;5114717;28;20080;-89
2022/11/05 18:36:17;;;;;;;7.07;3.85;;;;;;;9.55;86.82;101576.50;5113698;28;20023;-88
2022/11/05 18:38:42;;;;;;;10.88;4.82;;;;;;;9.54;86.46;101566.13;5114817;28;20110;-89
2022/11/05 18:41:07;;;;;;;9.73;4.83;;;;;;;9.50;86.29;101561.81;5114010;28;20104;-88
2022/11/05 18:43:32;;;;;;;8.63;4.80;;;;;;;9.47;86.22;101575.63;5114365;28;20031;-88
2022/11/05 18:45:58;;;;;;;7.87;4.30;;;;;;;9.49;86.25;101584.28;5114070;28;20027;-88
2022/11/05 18:48:23;;;;;;;8.10;4.10;;;;;;;9.48;86.36;101589.44;5114638;28;20023;-90
2022/11/05 18:50:48;;;;;;;5.07;3.60;;;;;;;9.48;86.04;101592.03;5113577;28;20114;-88
2022/11/05 18:53:14;;;;;;;4.80;3.53;;;;;;;9.49;87.05;101591.16;5114582;28;20108;-88
2022/11/05 18:55:39;;;;;;;8.60;4.43;;;;;;;9.46;85.99;101589.44;5114521;28;20020;-89
2022/11/05 18:58:04;;;;;;;6.37;3.67;;;;;;;9.46;86.57;101589.44;5113924;28;20046;-88
2022/11/05 19:00:30;;;;;;;6.23;3.60;;;;;;;9.46;86.82;101586.00;5113900;28;20030;-88
2022/11/05 19:02:56;;;;;;;6.85;3.80;;;;;;;9.46;86.66;101583.41;5113843;28;20073;-87
2022/11/05 19:05:22;;;;;;;7.23;4.13;;;;;;;9.42;86.36;101580.81;5114160;28;20027;-91
2022/11/05 19:07:47;;;;;;;8.03;4.50;;;;;;;9.41;86.35;101578.19;5114412;28;20020;-91
2022/11/05 19:10:12;;;;;;;6.07;4.00;;;;;;;9.40;86.92;101568.72;5114250;28;20016;-90
2022/11/05 19:12:39;;;;;;;7.30;4.00;;;;;;;9.38;86.21;101563.53;5113968;28;20412;-90
2022/11/05 19:15:05;;;;;;;7.80;4.70;;;;;;;9.36;86.80;101565.22;5114198;28;20039;-89
2022/11/05 19:17:32;;;;;;;9.13;4.68;;;;;;;9.35;86.42;101558.31;5114082;28;20028;-90
2022/11/05 19:19:57;;;;;;;8.13;4.85;;;;;;;9.33;86.77;101554.88;5113636;28;20016;-90
2022/11/05 19:22:23;;;;;;;8.50;5.03;;;;;;;9.33;86.60;101554.00;5114242;28;20077;-89
2022/11/05 19:24:48;;;;;;;9.93;5.63;;;;;;;9.30;86.90;101549.69;5113498;28;20076;-90
2022/11/05 19:27:17;;;;;;;8.47;4.70;;;;;;;9.28;86.80;101546.22;5113396;28;20165;-89
2022/11/05 19:29:44;;;;;;;9.52;5.18;;;;;;;9.24;86.57;101544.50;5113804;28;20035;-89
2022/11/05 19:32:09;;;;;;;10.95;5.30;;;;;;;9.23;86.50;101542.78;5113186;28;20030;-89
2022/11/05 19:34:36;;;;;;;10.38;5.40;;;;;;;9.20;86.82;101538.44;5113373;28;20016;-91
2022/11/05 19:37:13;;;;;;;8.10;4.95;;;;;;;9.19;86.87;101548.81;5113605;28;20030;-89
2022/11/05 19:39:42;;;;;;;9.93;5.55;;;;;;;9.17;86.93;101540.19;5112744;28;20057;-89
2022/11/05 19:42:10;;;;;;;12.23;6.07;;;;;;;9.17;87.17;101540.19;5115037;28;20073;-90
2022/11/05 19:44:35;;;;;;;11.63;5.72;;;;;;;9.16;87.00;101538.44;5113989;28;20102;-90
2022/11/05 19:47:00;;;;;;;9.37;5.13;;;;;;;9.12;87.23;101541.03;5112951;28;20116;-90
2022/11/05 19:49:28;;;;;;;11.13;5.45;;;;;;;9.09;87.19;101529.78;5117308;28;20401;-91
2022/11/05 19:51:53;;;;;;;12.50;5.70;;;;;;;9.06;87.53;101517.72;5117800;28;20027;-91
2022/11/05 19:54:41;;;;;;;9.10;5.50;;;;;;;9.02;87.43;101515.97;5117421;28;20026;-91
2022/11/05 19:57:06;;;;;;;8.73;5.03;;;;;;;8.99;87.45;101516.00;5117616;28;20023;-91
2022/11/05 19:59:32;;;;;;;9.97;5.60;;;;;;;8.96;87.59;101508.22;5117674;28;20392;-91
2022/11/05 20:01:57;;;;;;;8.70;5.50;;;;;;;8.92;87.78;101502.16;5115943;28;20522;-91
2022/11/05 20:04:22;;;;;;;14.00;6.20;;;;;;;8.86;88.13;101498.69;5116913;28;20027;-90
2022/11/05 20:06:48;;;;;;;12.63;6.40;;;;;;;8.85;88.08;101502.13;5117082;28;20092;-90
2022/11/05 20:09:14;;;;;;;12.17;6.37;;;;;;;8.81;87.86;101496.94;5117056;28;20027;-91
2022/11/05 20:11:39;;;;;;;11.77;5.70;;;;;;;8.79;88.10;101495.22;5117654;28;20016;-90
2022/11/05 20:14:06;;;;;;;11.67;5.70;;;;;;;8.79;88.32;101508.16;5117011;28;20077;-90
2022/11/05 20:16:38;;;;;;;9.35;5.30;;;;;;;8.78;88.18;101509.88;5117486;28;20028;-91
2022/11/05 20:19:06;;;;;;;10.27;5.47;;;;;;;8.78;88.34;101514.19;5117002;28;20106;-91
2022/11/05 20:21:32;;;;;;;10.43;5.13;;;;;;;8.80;88.32;101521.09;5116981;28;20032;-90
2022/11/05 20:23:58;;;;;;;11.27;5.70;;;;;;;8.79;88.52;101516.78;5116691;28;20050;-91
2022/11/05 20:26:24;;;;;;;12.20;5.33;;;;;;;8.80;88.19;101497.81;5117123;28;20024;-91
2022/11/05 20:28:49;;;;;;;11.13;5.90;;;;;;;8.79;88.70;101506.44;5116906;28;20428;-90
2022/11/05 20:31:16;;;;;;;12.27;6.30;;;;;;;8.78;89.05;101507.28;5116670;28;20070;-91
2022/11/05 20:33:43;;;;;;;8.93;5.30;;;;;;;8.82;88.40;101505.59;5116528;28;20063;-90
2022/11/05 20:36:12;;;;;;;10.25;5.28;;;;;;;8.79;88.80;101501.25;5116183;28;20535;-91
2022/11/05 20:38:37;;;;;;;10.43;5.15;;;;;;;8.80;88.67;101494.38;5117005;28;20039;-91
2022/11/05 20:41:11;;;;;;;12.10;5.67;;;;;;;8.83;88.55;101507.31;5116797;28;20035;-91
2022/11/05 20:43:39;;;;;;;10.68;5.30;;;;;;;8.80;88.87;101492.63;5116485;28;20028;-91
2022/11/05 20:46:07;;;;;;;9.27;5.40;;;;;;;8.80;88.97;101509.91;5116897;28;20034;-91
2022/11/05 20:48:33;;;;;;;11.32;5.45;;;;;;;8.79;88.92;101497.81;5116863;28;20028;-90
2022/11/05 20:51:06;;;;;;;10.38;5.28;;;;;;;8.77;88.95;101496.94;5116019;28;20028;-90
2022/11/05 20:53:32;;;;;;;10.68;5.60;;;;;;;8.78;88.95;101504.69;5117012;28;20026;-90
2022/11/05 20:55:57;;;;;;;10.00;5.40;;;;;;;8.78;88.75;101507.28;5115926;28;20031;-90
2022/11/05 20:58:31;;;;;;;11.93;5.93;;;;;;;8.79;88.76;101514.19;5116631;28;20072;-92
2022/11/05 21:00:56;;;;;;;8.45;4.90;;;;;;;8.77;88.84;101515.06;5115185;28;20051;-90
2022/11/05 21:03:22;;;;;;;11.30;5.43;;;;;;;8.74;88.68;101515.91;5115672;28;20027;-90
2022/11/05 21:05:51;;;;;;;9.65;4.82;;;;;;;8.72;88.83;101525.41;5116434;28;20051;-90
2022/11/05 21:08:16;;;;;;;12.00;5.68;;;;;;;8.69;89.18;101516.75;5116228;28;20031;-89
2022/11/05 21:10:43;;;;;;;10.17;5.13;;;;;;;8.64;89.18;101525.34;5116135;28;20412;-90
2022/11/05 21:13:08;;;;;;;11.73;5.20;;;;;;;8.63;89.33;101525.38;5116150;28;20106;-90
2022/11/05 21:15:34;;;;;;;13.23;5.43;;;;;;;8.60;89.20;101533.09;5116142;28;20110;-90
2022/11/05 21:18:01;;;;;;;12.37;6.00;;;;;;;8.58;89.43;101535.69;5115794;28;20093;-90
2022/11/05 21:20:26;;;;;;;10.88;5.53;;;;;;;8.57;89.54;101528.78;5112849;28;20028;-90
2022/11/05 21:22:52;;;;;;;10.30;5.23;;;;;;;8.57;89.60;101527.91;5115980;28;20039;-91
2022/11/05 21:25:17;;;;;;;8.90;5.10;;;;;;;8.56;89.23;101532.25;5116376;28;20024;-90
2022/11/05 21:27:43;;;;;;;8.57;4.50;;;;;;;8.54;89.55;101526.19;5115560;28;20102;-91
2022/11/05 21:30:09;;;;;;;9.40;5.32;;;;;;;8.54;89.63;101527.94;5115365;28;20418;-90
2022/11/05 21:32:35;;;;;;;11.27;5.30;;;;;;;8.54;89.77;101526.19;5115979;28;20042;-91
2022/11/05 21:35:00;;;;;;;10.37;5.03;;;;;;;8.54;89.61;101515.84;5115815;28;20024;-91
2022/11/05 21:37:25;;;;;;;8.60;4.47;;;;;;;8.52;89.73;101521.88;5115857;28;20106;-91
2022/11/05 21:39:51;;;;;;;7.90;4.47;;;;;;;8.50;89.92;101522.72;5115637;28;20022;-91
2022/11/05 21:42:16;;;;;;;8.73;4.73;;;;;;;8.47;89.85;101522.72;5115774;28;20051;-91
2022/11/05 21:44:44;;;;;;;10.97;4.73;;;;;;;8.44;90.21;101514.91;5115290;28;20023;-92
2022/11/05 21:47:09;;;;;;;11.25;5.60;;;;;;;8.42;90.35;101508.00;5115308;28;20057;-91
2022/11/05 21:49:35;;;;;;;10.33;5.60;;;;;;;8.41;90.27;101503.66;5116119;28;20031;-92
2022/11/05 22:00:13;;;;;;;9.60;5.20;;;;;;;8.39;90.72;101493.34;5114600;28;20042;-91
2022/11/05 22:02:38;;;;;;;8.50;4.70;;;;;;;8.42;90.91;101495.06;5114812;28;20055;-90
2022/11/05 22:05:05;;;;;;;10.93;4.90;;;;;;;8.45;90.59;101489.91;5114374;28;20452;-92
2022/11/05 22:07:36;;;;;;;9.80;5.20;;;;;;;8.42;90.78;101489.88;5115141;28;20379;-92
2022/11/05 22:10:04;;;;;;;9.90;5.07;;;;;;;8.45;90.81;101482.16;5114661;28;20046;-91
2022/11/05 22:12:29;;;;;;;11.80;5.30;;;;;;;8.44;91.22;101470.06;5114969;28;20103;-91
2022/11/05 22:14:55;;;;;;;8.70;4.80;;;;;;;8.49;90.77;101465.81;5114684;28;20047;-91
2022/11/05 22:17:20;;;;;;;9.27;4.50;;;;;;;8.46;90.98;101479.56;5115564;28;20020;-92
2022/11/05 22:19:46;;;;;;;8.67;4.60;;;;;;;8.50;90.64;101468.41;5115128;28;20024;-93
2022/11/05 22:22:12;;;;;;;9.63;4.77;;;;;;;8.51;90.85;101464.06;5114184;28;20059;-92
2022/11/05 22:24:38;;;;;;;12.57;4.70;;;;;;;8.52;90.78;101470.97;5115018;28;20055;-93
2022/11/05 22:27:06;;;;;;;6.70;4.17;;;;;;;8.54;90.81;101469.28;5114568;28;20065;-92
2022/11/05 22:29:31;;;;;;;10.15;4.70;;;;;;;8.53;91.10;101475.28;5114799;28;20034;-93
2022/11/05 22:31:57;;;;;;;7.33;3.93;;;;;;;8.55;90.29;101476.16;5114784;28;20016;-92
2022/11/05 22:34:24;;;;;;;6.40;3.87;;;;;;;8.56;90.30;101479.59;5114728;28;20168;-92
2022/11/05 22:36:49;;;;;;;7.72;4.20;;;;;;;8.54;90.97;101471.84;5114723;28;20024;-91
2022/11/05 22:39:16;;;;;;;9.43;4.17;;;;;;;8.56;90.82;101482.19;5108989;22;20422;-92
2022/11/05 22:41:48;;;;;;;8.95;4.65;;;;;;;8.55;90.77;101475.31;5033760;28;20034;-92
2022/11/05 22:44:15;;;;;;;8.77;4.82;;;;;;;8.54;90.91;101465.84;5034525;28;20080;-92
2022/11/05 22:46:41;;;;;;;9.00;5.00;;;;;;;8.54;90.93;101471.00;5034529;28;20056;-92
2022/11/05 22:49:06;;;;;;;9.23;4.90;;;;;;;8.67;90.59;101457.22;5034702;28;20041;-92
2022/11/05 22:51:33;;;;;;;7.93;4.45;;;;;;;8.56;90.81;101452.03;5034286;28;20047;-92
2022/11/05 22:54:02;;;;;;;7.82;4.38;;;;;;;8.55;90.91;101449.44;5033518;28;20041;-91
2022/11/05 22:56:30;;;;;;;8.40;4.10;;;;;;;8.55;91.18;101447.72;5033793;28;20455;-93
2022/11/05 22:58:56;;;;;;;7.20;4.05;;;;;;;8.56;90.79;101458.91;5033757;28;20026;-92
2022/11/05 23:01:22;;;;;;;6.70;4.10;;;;;;;8.53;91.04;101444.25;5033924;28;20030;-92
2022/11/05 23:03:50;;;;;;;8.15;4.20;;;;;;;8.54;90.88;101439.97;5034120;28;20124;-91
2022/11/05 23:11:53;;;;;;;12.40;4.97;;;;;;;8.57;90.86;101434.78;5033749;28;20044;-91
2022/11/05 23:14:19;;;;;;;9.45;4.57;;;;;;;8.56;90.95;101431.34;5034124;28;20053;-93
2022/11/05 23:25:00;;;;;;;6.97;4.25;;;;;;;8.56;90.80;101428.75;5037528;28;20072;-94
2022/11/05 23:27:30;;;;;;;7.80;4.40;;;;;;;8.56;90.45;101422.69;5037624;28;20401;-93
2022/11/05 23:29:59;;;;;;;8.25;4.40;;;;;;;8.52;90.59;101421.81;5036981;28;20032;-91
2022/11/05 23:32:27;;;;;;;6.85;3.85;;;;;;;8.49;90.81;101414.94;5037904;28;20366;-90
2022/11/05 23:34:55;;;;;;;6.28;3.90;;;;;;;8.46;90.86;101417.47;5037410;28;20021;-90
2022/11/05 23:40:09;;;;;;;9.40;4.30;;;;;;;8.39;90.99;101405.38;5037138;28;20045;-89
2022/11/05 23:48:34;;;;;;;8.43;4.55;;;;;;;8.29;91.48;101404.47;5037339;28;20103;-88
2022/11/05 23:51:03;;;;;;;6.72;3.90;;;;;;;8.27;91.40;101398.47;5024733;28;20065;-90
2022/11/05 23:53:30;;;;;;;8.60;3.70;;;;;;;8.28;91.61;101400.16;5037243;28;20101;-91
2022/11/05 23:56:15;;;;;;;9.32;4.40;;;;;;;8.31;91.65;101392.44;5036300;28;20096;-91
2022/11/05 23:58:41;;;;;;;7.40;3.83;;;;;;;8.33;91.60;101400.22;5037121;28;20025;-88
